Jameson, Missouri
Current Conditions -  °F | °C
As of 7:40 PM on Monday 22 Dec 2014 (Local Time) from KLWD Reporting Station
Haze Haze  
Wind Chill: 42°   Ceiling: 300
Heat Index: 42°   Visibility: 0.75mi
Dew Point: 42°   Wind: 3mph
Humidity: 100%   Direction: 120°ESE
Pressure: 29.42"   Gusts: NA
Location:  40.01°N, 93.98°W
Report Text: KLWD 230140Z AUTO 12003KT 3/4SM BR VV003 06/06 A2942 RMK AO2 T00560056
Loading
Personal Weather Stations






























Interactive Weather Map New forecast layout! Learn more

10-Day Weather Forecast

Advertisements
Track Severe Weather on mobile